createdAt,value
2022-08-14T00:02:27.387Z,7.85
2022-08-14T00:04:55.794Z,10.25
2022-08-14T00:07:23.450Z,10.43
2022-08-14T00:10:01.651Z,8.63
2022-08-14T00:12:41.752Z,8.07
2022-08-14T00:15:15.431Z,9.75
2022-08-14T00:17:48.221Z,10.18
2022-08-14T00:20:36.095Z,9.25
2022-08-14T00:23:16.847Z,8.27
2022-08-14T00:25:54.086Z,8.10
2022-08-14T00:28:36.164Z,11.63
2022-08-14T00:31:08.135Z,9.50
2022-08-14T00:33:50.838Z,9.50
2022-08-14T00:36:47.990Z,7.93
2022-08-14T00:39:14.264Z,7.25
2022-08-14T00:41:42.600Z,8.93
2022-08-14T00:44:10.895Z,11.77
2022-08-14T00:46:39.029Z,8.27
2022-08-14T00:49:08.215Z,10.05
2022-08-14T00:51:39.678Z,9.02
2022-08-14T00:54:16.729Z,10.40
2022-08-14T00:56:55.687Z,9.75
2022-08-14T00:59:26.008Z,13.30
2022-08-14T01:01:59.840Z,9.95
2022-08-14T01:04:52.308Z,16.73
2022-08-14T01:07:20.915Z,13.70
2022-08-14T01:09:55.154Z,10.77
2022-08-14T01:12:27.096Z,9.30
2022-08-14T01:14:58.909Z,11.27
2022-08-14T01:17:49.916Z,9.77
2022-08-14T01:20:40.138Z,8.70
2022-08-14T01:23:16.431Z,13.57
2022-08-14T01:25:51.392Z,9.82
2022-08-14T01:28:46.516Z,9.90
2022-08-14T01:31:18.508Z,11.93
2022-08-14T01:35:15.795Z,13.65
2022-08-14T01:36:39.320Z,12.48
2022-08-14T01:39:15.687Z,12.88
2022-08-14T01:41:56.170Z,13.57
2022-08-14T01:44:32.182Z,12.70
2022-08-14T01:47:09.660Z,9.85
2022-08-14T01:49:58.964Z,11.32
2022-08-14T01:52:34.148Z,11.05
2022-08-14T01:55:19.982Z,10.80
2022-08-14T01:57:49.620Z,12.55
2022-08-14T02:00:35.941Z,12.40
2022-08-14T02:03:06.174Z,10.23
2022-08-14T02:05:38.398Z,11.68
2022-08-14T02:08:08.969Z,12.00
2022-08-14T02:13:19.013Z,13.00
2022-08-14T02:15:48.536Z,14.70
2022-08-14T02:18:16.635Z,14.80
2022-08-14T02:20:48.319Z,11.18
2022-08-14T02:23:16.592Z,9.65
2022-08-14T02:25:59.599Z,10.75
2022-08-14T02:28:59.532Z,8.93
2022-08-14T02:31:42.550Z,8.07
2022-08-14T02:34:26.365Z,10.95
2022-08-14T02:37:06.763Z,9.57
2022-08-14T02:39:40.486Z,8.68
2022-08-14T02:42:12.937Z,13.02
2022-08-14T02:44:49.370Z,14.05
2022-08-14T02:47:20.920Z,12.13
2022-08-14T02:49:50.479Z,9.57
2022-08-14T02:52:26.804Z,11.80
2022-08-14T02:55:11.547Z,12.15
2022-08-14T02:57:43.593Z,8.88
2022-08-14T03:00:18.680Z,11.20
2022-08-14T03:02:56.085Z,8.50
2022-08-14T03:05:33.024Z,10.80
2022-08-14T03:08:15.918Z,8.23
2022-08-14T03:10:49.274Z,9.98
2022-08-14T03:13:21.577Z,10.13
2022-08-14T03:15:55.697Z,10.45
2022-08-14T03:18:31.583Z,9.38
2022-08-14T03:21:02.880Z,12.40
2022-08-14T03:23:37.955Z,12.27
2022-08-14T03:26:08.810Z,11.68
2022-08-14T03:28:43.513Z,12.13
2022-08-14T03:31:13.010Z,9.50
2022-08-14T03:33:42.226Z,9.73
2022-08-14T03:37:51.892Z,13.77
2022-08-14T03:39:12.833Z,9.80
2022-08-14T03:41:46.406Z,15.32
2022-08-14T03:45:25.467Z,9.52
2022-08-14T03:47:03.005Z,10.50
2022-08-14T03:49:31.007Z,17.67
2022-08-14T03:52:00.569Z,10.00
2022-08-14T03:54:29.365Z,10.85
2022-08-14T03:57:02.384Z,12.57
2022-08-14T03:59:32.615Z,10.95
2022-08-14T04:02:04.602Z,9.73
2022-08-14T04:04:38.250Z,12.25
2022-08-14T04:07:11.038Z,10.55
2022-08-14T04:09:38.743Z,11.15
2022-08-14T04:12:08.324Z,12.25
2022-08-14T04:14:40.990Z,12.20
2022-08-14T04:17:10.025Z,10.05
2022-08-14T04:19:39.091Z,10.90
2022-08-14T04:22:06.703Z,11.00
2022-08-14T04:24:38.213Z,10.48
2022-08-14T04:27:13.001Z,9.82
2022-08-14T04:29:45.344Z,9.30
2022-08-14T04:33:01.178Z,12.35
2022-08-14T04:35:07.591Z,11.35
2022-08-14T04:37:56.791Z,13.57
2022-08-14T04:40:43.053Z,8.63
2022-08-14T04:43:38.322Z,11.77
2022-08-14T04:46:57.136Z,13.10
2022-08-14T04:49:07.858Z,9.95
2022-08-14T04:51:46.411Z,10.98
2022-08-14T04:54:17.230Z,10.07
2022-08-14T04:56:45.426Z,11.82
2022-08-14T04:59:13.206Z,12.40
2022-08-14T05:01:47.702Z,10.57
2022-08-14T05:04:19.880Z,12.20
2022-08-14T05:06:53.455Z,10.75
2022-08-14T05:09:24.516Z,9.32
2022-08-14T05:11:56.698Z,11.75
2022-08-14T05:14:45.992Z,11.93
2022-08-14T05:17:21.704Z,14.52
2022-08-14T05:21:55.657Z,14.75
2022-08-14T05:22:38.195Z,16.92
2022-08-14T05:25:06.255Z,13.20
2022-08-14T05:27:34.599Z,12.05
2022-08-14T05:30:06.004Z,10.57
2022-08-14T05:32:36.047Z,12.35
2022-08-14T05:35:05.055Z,11.02
2022-08-14T05:37:32.958Z,12.45
2022-08-14T05:40:02.153Z,13.07
2022-08-14T05:42:31.882Z,10.60
2022-08-14T05:45:00.007Z,9.95
2022-08-14T05:47:28.954Z,13.38
2022-08-14T05:50:02.374Z,9.50
2022-08-14T05:52:39.361Z,11.63
2022-08-14T05:55:21.948Z,12.68
2022-08-14T05:57:52.273Z,11.75
2022-08-14T06:00:29.267Z,11.38
2022-08-14T06:03:00.610Z,16.27
2022-08-14T06:05:32.580Z,14.98
2022-08-14T06:08:08.753Z,10.90
2022-08-14T06:10:53.373Z,13.43
2022-08-14T06:13:21.953Z,11.63
2022-08-14T06:15:59.409Z,13.73
2022-08-14T06:18:27.295Z,12.27
2022-08-14T06:20:59.910Z,12.75
2022-08-14T06:23:27.502Z,11.93
2022-08-14T06:25:55.135Z,14.02
2022-08-14T06:28:28.644Z,12.88
2022-08-14T06:30:56.454Z,11.40
2022-08-14T06:33:30.312Z,13.98
2022-08-14T06:36:12.939Z,17.13
2022-08-14T06:38:46.242Z,12.88
2022-08-14T06:41:20.584Z,16.73
2022-08-14T06:43:48.600Z,10.75
2022-08-14T06:46:26.551Z,12.38
2022-08-14T06:49:02.800Z,13.73
2022-08-14T06:51:39.032Z,13.88
2022-08-14T06:54:13.729Z,13.27
2022-08-14T06:56:44.169Z,8.95
2022-08-14T06:59:15.810Z,9.15
2022-08-14T07:02:06.020Z,10.68
2022-08-14T07:04:59.528Z,13.80
2022-08-14T07:07:37.125Z,11.93
2022-08-14T07:10:13.237Z,10.85
2022-08-14T07:12:56.221Z,13.55
2022-08-14T07:15:32.268Z,10.82
2022-08-14T07:18:02.533Z,10.95
2022-08-14T07:20:32.067Z,10.82
2022-08-14T07:23:07.695Z,10.10
2022-08-14T07:25:42.079Z,15.13
2022-08-14T07:28:20.576Z,12.23
2022-08-14T07:30:57.591Z,9.55
2022-08-14T07:33:41.997Z,9.82
2022-08-14T07:36:27.179Z,10.02
2022-08-14T07:39:00.347Z,9.05
2022-08-14T07:41:33.538Z,8.43
2022-08-14T07:44:28.868Z,10.63
2022-08-14T07:46:50.753Z,9.05
2022-08-14T07:49:19.400Z,11.55
2022-08-14T07:51:49.328Z,9.80
2022-08-14T07:57:00.037Z,10.40
2022-08-14T07:59:41.407Z,10.98
2022-08-14T08:02:19.011Z,9.55
2022-08-14T08:04:55.374Z,9.32
2022-08-14T08:07:30.511Z,12.40
2022-08-14T08:10:01.265Z,10.93
2022-08-14T08:12:32.412Z,9.80
2022-08-14T08:15:03.040Z,6.75
2022-08-14T08:17:42.385Z,14.30
2022-08-14T08:20:27.199Z,9.43
2022-08-14T08:23:00.471Z,8.40
2022-08-14T08:25:34.066Z,8.88
2022-08-14T08:28:19.737Z,8.73
2022-08-14T08:30:52.045Z,10.30
2022-08-14T08:33:22.730Z,12.03
2022-08-14T08:35:51.032Z,7.88
2022-08-14T08:39:17.568Z,10.25
2022-08-14T08:41:11.209Z,8.55
2022-08-14T08:43:45.825Z,10.60
2022-08-14T08:46:21.400Z,9.75
2022-08-14T08:51:43.986Z,5.53
2022-08-14T08:54:19.709Z,11.02
2022-08-14T08:56:50.202Z,8.50
2022-08-14T08:59:34.245Z,9.07
2022-08-14T09:02:04.956Z,7.82
2022-08-14T09:04:53.584Z,6.63
2022-08-14T09:07:28.087Z,9.23
2022-08-14T09:09:59.838Z,7.15
2022-08-14T09:12:31.509Z,6.88
2022-08-14T09:15:12.062Z,7.45
2022-08-14T09:17:42.480Z,5.68
2022-08-14T09:20:12.511Z,6.72
2022-08-14T09:22:48.197Z,7.13
2022-08-14T09:25:19.715Z,7.32
2022-08-14T09:27:47.861Z,6.68
2022-08-14T09:30:32.621Z,7.75
2022-08-14T09:33:11.721Z,6.50
2022-08-14T09:36:02.075Z,6.60
2022-08-14T09:38:54.590Z,8.25
2022-08-14T09:42:17.309Z,6.53
2022-08-14T09:44:49.682Z,8.98
2022-08-14T09:47:17.478Z,6.03
2022-08-14T09:49:52.140Z,5.50
2022-08-14T09:52:23.795Z,6.90
2022-08-14T09:57:31.418Z,9.50
2022-08-14T10:00:28.302Z,8.75
2022-08-14T10:03:05.265Z,8.70
2022-08-14T10:05:39.346Z,6.82
2022-08-14T10:08:25.214Z,7.22
2022-08-14T10:11:02.418Z,6.35
2022-08-14T10:13:42.918Z,9.05
2022-08-14T10:16:25.824Z,7.90
2022-08-14T10:19:20.464Z,6.35
2022-08-14T10:23:22.232Z,6.68
2022-08-14T10:24:59.974Z,6.55
2022-08-14T10:27:28.788Z,9.30
2022-08-14T10:30:01.021Z,7.43
2022-08-14T10:32:36.618Z,6.95
2022-08-14T10:35:14.356Z,7.47
2022-08-14T10:37:50.105Z,6.13
2022-08-14T10:40:43.773Z,5.32
2022-08-14T10:43:23.185Z,7.00
2022-08-14T10:46:21.689Z,6.38
2022-08-14T10:49:00.198Z,5.45
2022-08-14T10:51:30.124Z,7.90
2022-08-14T10:54:16.556Z,7.88
2022-08-14T10:56:56.015Z,7.07
2022-08-14T10:59:30.928Z,5.68
2022-08-14T11:02:03.869Z,6.28
2022-08-14T11:04:32.382Z,6.80
2022-08-14T11:07:00.802Z,6.03
2022-08-14T11:09:31.840Z,7.30
2022-08-14T11:12:34.392Z,7.53
2022-08-14T11:15:02.380Z,7.38
2022-08-14T11:17:36.283Z,10.77
2022-08-14T11:20:14.039Z,7.95
2022-08-14T11:22:56.299Z,5.15
2022-08-14T11:25:43.504Z,5.40
2022-08-14T11:28:19.136Z,5.72
2022-08-14T11:30:54.380Z,6.90
2022-08-14T11:33:31.287Z,5.63
2022-08-14T11:36:01.851Z,5.85
2022-08-14T11:38:38.202Z,8.23
2022-08-14T11:41:06.258Z,5.70
2022-08-14T11:43:43.368Z,5.50
2022-08-14T11:46:30.468Z,6.72
2022-08-14T11:49:06.542Z,5.03
2022-08-14T11:51:50.858Z,7.43
2022-08-14T11:54:33.942Z,6.80
2022-08-14T11:57:04.603Z,7.88
2022-08-14T11:59:35.395Z,7.18
2022-08-14T12:02:38.997Z,8.43
2022-08-14T12:05:04.143Z,5.97
2022-08-14T12:07:32.218Z,5.13
2022-08-14T12:10:00.038Z,6.68
2022-08-14T12:12:35.759Z,6.72
2022-08-14T12:15:05.473Z,5.47
2022-08-14T12:17:47.480Z,6.13
2022-08-14T12:20:29.919Z,6.93
2022-08-14T12:23:02.554Z,8.82
2022-08-14T12:25:34.867Z,5.85
2022-08-14T12:28:10.468Z,6.32
2022-08-14T12:30:56.713Z,6.05
2022-08-14T12:33:31.220Z,9.80
2022-08-14T12:36:06.084Z,9.98
2022-08-14T12:38:45.044Z,9.48
2022-08-14T12:41:22.147Z,6.78
2022-08-14T12:44:02.506Z,5.20
2022-08-14T12:46:35.042Z,9.02
2022-08-14T12:49:17.077Z,6.40
2022-08-14T12:51:57.195Z,6.53
2022-08-14T12:54:27.603Z,6.50
2022-08-14T12:57:19.837Z,7.60
2022-08-14T12:59:49.477Z,5.82
2022-08-14T13:02:26.406Z,5.47
2022-08-14T13:04:56.835Z,5.50
2022-08-14T13:07:32.618Z,5.43
2022-08-14T13:10:45.840Z,6.22
2022-08-14T13:13:12.618Z,5.78
2022-08-14T13:15:40.667Z,7.60
2022-08-14T13:18:10.593Z,8.48
2022-08-14T13:20:44.162Z,6.57
2022-08-14T13:23:19.651Z,8.70
2022-08-14T13:25:59.928Z,6.07
2022-08-14T13:28:33.783Z,7.32
2022-08-14T13:31:11.089Z,8.65
2022-08-14T13:33:40.446Z,5.80
2022-08-14T13:36:23.632Z,6.47
2022-08-14T13:38:54.108Z,6.55
2022-08-14T13:41:27.985Z,6.20
2022-08-14T13:44:00.714Z,8.05
2022-08-14T13:46:28.417Z,6.78
2022-08-14T13:48:59.723Z,7.57
2022-08-14T13:54:10.786Z,6.22
2022-08-14T13:56:40.906Z,6.90
2022-08-14T13:59:10.523Z,10.27
2022-08-14T14:01:43.858Z,5.60
2022-08-14T14:04:23.880Z,8.70
2022-08-14T14:06:52.467Z,6.45
2022-08-14T14:09:32.387Z,9.48
2022-08-14T14:12:37.609Z,6.65
2022-08-14T14:14:56.715Z,4.97
2022-08-14T14:17:28.924Z,7.75
2022-08-14T14:19:58.393Z,5.28
2022-08-14T14:22:36.025Z,5.97
2022-08-14T14:25:19.587Z,5.97
2022-08-14T14:27:53.669Z,5.60
2022-08-14T14:30:52.014Z,9.20
2022-08-14T14:33:44.140Z,7.93
2022-08-14T14:36:02.746Z,6.53
2022-08-14T14:38:34.303Z,5.95
2022-08-14T14:41:05.535Z,8.73
2022-08-14T14:43:36.093Z,6.40
2022-08-14T14:46:09.366Z,6.93
2022-08-14T14:48:46.550Z,4.90
2022-08-14T14:51:22.473Z,5.45
2022-08-14T14:53:50.085Z,6.03
2022-08-14T14:56:49.528Z,5.07
2022-08-14T14:59:06.574Z,5.72
2022-08-14T15:01:39.371Z,5.95
2022-08-14T15:04:20.245Z,6.97
2022-08-14T15:06:49.988Z,6.18
2022-08-14T15:09:18.470Z,5.15
2022-08-14T15:14:57.331Z,6.55
2022-08-14T15:17:03.957Z,7.50
2022-08-14T15:19:32.325Z,8.02
2022-08-14T15:22:00.362Z,6.38
2022-08-14T15:24:27.890Z,6.35
2022-08-14T15:26:58.650Z,6.95
2022-08-14T15:29:27.383Z,6.90
2022-08-14T15:31:55.056Z,7.13
2022-08-14T15:34:43.045Z,4.97
2022-08-14T15:37:13.084Z,6.68
2022-08-14T15:39:44.346Z,6.47
2022-08-14T15:42:15.914Z,8.88
2022-08-14T15:44:58.217Z,6.35
2022-08-14T15:47:32.161Z,8.60
2022-08-14T15:50:01.574Z,6.15
2022-08-14T15:52:35.390Z,9.85
2022-08-14T15:55:09.664Z,7.68
2022-08-14T15:57:37.828Z,5.78
2022-08-14T16:00:43.518Z,6.25
2022-08-14T16:03:16.815Z,6.22
2022-08-14T16:05:46.119Z,6.13
2022-08-14T16:08:27.331Z,7.00
2022-08-14T16:11:00.863Z,7.68
2022-08-14T16:13:38.943Z,7.15
2022-08-14T16:16:47.218Z,8.70
2022-08-14T16:19:09.969Z,7.70
2022-08-14T16:22:01.351Z,9.07
2022-08-14T16:24:33.362Z,8.85
2022-08-14T16:27:05.276Z,8.02
2022-08-14T16:29:35.758Z,9.68
2022-08-14T16:34:54.954Z,7.35
2022-08-14T16:37:30.612Z,7.32
2022-08-14T16:39:59.421Z,6.70
2022-08-14T16:42:38.640Z,7.25
2022-08-14T16:45:18.705Z,9.32
2022-08-14T16:47:47.798Z,6.60
2022-08-14T16:50:40.703Z,6.05
2022-08-14T16:53:07.459Z,6.82
2022-08-14T16:55:53.735Z,5.95
2022-08-14T16:58:30.191Z,6.78
2022-08-14T17:01:22.467Z,8.18
2022-08-14T17:03:59.405Z,7.95
2022-08-14T17:06:43.066Z,10.13
2022-08-14T17:09:34.129Z,7.88
2022-08-14T17:12:28.686Z,6.28
2022-08-14T17:15:09.776Z,6.43
2022-08-14T17:17:40.887Z,8.15
2022-08-14T17:21:00.174Z,6.18
2022-08-14T17:23:02.487Z,6.13
2022-08-14T17:25:38.974Z,7.25
2022-08-14T17:28:51.182Z,7.20
2022-08-14T17:31:06.414Z,6.43
2022-08-14T17:33:40.590Z,7.03
2022-08-14T17:36:24.270Z,6.03
2022-08-14T17:39:13.526Z,8.35
2022-08-14T17:42:03.261Z,7.55
2022-08-14T17:44:45.405Z,5.32
2022-08-14T17:47:18.018Z,7.78
2022-08-14T17:49:52.053Z,6.82
2022-08-14T17:52:34.904Z,8.27
2022-08-14T17:55:07.066Z,8.48
2022-08-14T17:57:40.830Z,10.15
2022-08-14T18:00:16.511Z,6.25
2022-08-14T18:02:50.345Z,5.97
2022-08-14T18:05:23.020Z,9.60
2022-08-14T18:08:32.977Z,6.63
2022-08-14T18:10:54.613Z,6.68
2022-08-14T18:13:49.904Z,6.03
2022-08-14T18:16:20.646Z,6.55
2022-08-14T18:18:51.743Z,7.93
2022-08-14T18:21:40.466Z,8.50
2022-08-14T18:24:28.343Z,7.13
2022-08-14T18:27:17.376Z,6.32
2022-08-14T18:29:56.238Z,6.93
2022-08-14T18:32:31.135Z,7.95
2022-08-14T18:35:00.304Z,6.93
2022-08-14T18:37:28.555Z,8.27
2022-08-14T18:40:15.683Z,9.23
2022-08-14T18:42:49.541Z,8.10
2022-08-14T18:45:28.603Z,9.48
2022-08-14T18:48:19.215Z,8.43
2022-08-14T18:50:52.707Z,7.43
2022-08-14T18:53:24.391Z,7.72
2022-08-14T18:56:01.947Z,8.40
2022-08-14T18:58:46.992Z,9.57
2022-08-14T19:01:33.284Z,10.27
2022-08-14T19:04:02.270Z,11.05
2022-08-14T19:06:42.869Z,9.90
2022-08-14T19:09:50.343Z,8.90
2022-08-14T19:12:56.704Z,12.45
2022-08-14T19:15:31.422Z,9.73
2022-08-14T19:18:14.366Z,9.30
2022-08-14T19:20:52.852Z,7.75
2022-08-14T19:23:43.251Z,7.60
2022-08-14T19:26:36.476Z,7.40
2022-08-14T19:29:37.639Z,10.45
2022-08-14T19:32:40.389Z,7.43
2022-08-14T19:35:22.854Z,7.68
2022-08-14T19:37:57.233Z,8.13
2022-08-14T19:40:33.946Z,10.13
2022-08-14T19:43:06.382Z,8.45
2022-08-14T19:45:35.102Z,9.13
2022-08-14T19:48:03.755Z,9.90
2022-08-14T19:50:40.203Z,8.45
2022-08-14T19:53:12.080Z,7.47
2022-08-14T19:56:02.121Z,7.50
2022-08-14T19:58:54.546Z,13.70
2022-08-14T20:01:36.954Z,9.25
2022-08-14T20:04:45.764Z,7.63
2022-08-14T20:06:57.176Z,9.05
2022-08-14T20:11:06.880Z,7.65
2022-08-14T20:12:28.983Z,9.77
2022-08-14T20:15:15.539Z,11.45
2022-08-14T20:17:54.371Z,8.85
2022-08-14T20:20:31.815Z,9.05
2022-08-14T20:23:03.155Z,8.95
2022-08-14T20:25:45.714Z,9.52
2022-08-14T20:28:35.364Z,11.27
2022-08-14T20:31:19.420Z,11.13
2022-08-14T20:34:07.910Z,13.80
2022-08-14T20:36:47.147Z,9.40
2022-08-14T20:39:15.309Z,10.40
2022-08-14T20:41:51.452Z,10.02
2022-08-14T20:44:39.645Z,9.98
2022-08-14T20:47:08.141Z,14.48
2022-08-14T20:49:37.323Z,10.25
2022-08-14T20:52:19.002Z,10.38
2022-08-14T20:54:51.454Z,9.25
2022-08-14T20:57:19.689Z,12.10
2022-08-14T20:59:57.162Z,10.18
2022-08-14T21:02:50.370Z,13.63
2022-08-14T21:05:33.871Z,11.77
2022-08-14T21:08:10.208Z,10.13
2022-08-14T21:10:54.983Z,11.30
2022-08-14T21:14:08.773Z,18.15
2022-08-14T21:16:34.711Z,14.98
2022-08-14T21:19:04.431Z,9.02
2022-08-14T21:21:40.452Z,8.40
2022-08-14T21:24:38.647Z,6.55
2022-08-14T21:27:12.896Z,7.60
2022-08-14T21:29:53.693Z,5.60
2022-08-14T21:32:47.263Z,7.30
2022-08-14T21:35:26.007Z,5.13
2022-08-14T21:37:53.899Z,8.40
2022-08-14T21:40:41.125Z,6.60
2022-08-14T21:43:18.871Z,5.72
2022-08-14T21:45:55.801Z,5.25
2022-08-14T21:48:29.292Z,6.38
2022-08-14T21:51:52.769Z,6.05
2022-08-14T21:53:59.280Z,5.37
2022-08-14T21:56:37.215Z,11.10
2022-08-14T21:59:18.830Z,8.93
2022-08-14T22:02:00.676Z,8.40
2022-08-14T22:04:39.889Z,8.82
2022-08-14T22:07:16.776Z,8.00
2022-08-14T22:09:55.273Z,7.57
2022-08-14T22:12:45.529Z,7.15
2022-08-14T22:15:15.391Z,8.10
2022-08-14T22:17:44.349Z,6.13
2022-08-14T22:20:16.369Z,7.25
2022-08-14T22:22:45.071Z,7.90
2022-08-14T22:25:17.211Z,7.47
2022-08-14T22:27:56.180Z,6.95
2022-08-14T22:30:25.422Z,7.38
2022-08-14T22:32:56.751Z,8.02
2022-08-14T22:35:26.870Z,4.95
2022-08-14T22:38:36.703Z,6.30
2022-08-14T22:41:03.825Z,6.78
2022-08-14T22:43:35.127Z,7.07
2022-08-14T22:46:06.148Z,6.88
2022-08-14T22:48:45.395Z,6.65
2022-08-14T22:51:16.095Z,8.55
2022-08-14T22:53:48.458Z,6.28
2022-08-14T22:56:20.727Z,6.90
2022-08-14T22:58:53.588Z,9.32
2022-08-14T23:01:57.249Z,6.32
2022-08-14T23:04:34.996Z,6.03
2022-08-14T23:07:21.662Z,6.00
2022-08-14T23:10:33.971Z,8.63
2022-08-14T23:12:54.679Z,7.53
2022-08-14T23:15:24.874Z,7.65
2022-08-14T23:17:58.817Z,7.60
2022-08-14T23:20:29.257Z,4.55
2022-08-14T23:22:58.561Z,5.88
2022-08-14T23:25:57.838Z,5.25
2022-08-14T23:28:34.909Z,6.25
2022-08-14T23:31:10.760Z,5.93
2022-08-14T23:33:45.800Z,9.68
2022-08-14T23:36:32.146Z,5.85
2022-08-14T23:39:10.081Z,8.63
2022-08-14T23:41:46.452Z,6.93
2022-08-14T23:44:23.737Z,7.68
2022-08-14T23:46:57.014Z,5.80
2022-08-14T23:49:56.589Z,9.43
2022-08-14T23:52:51.192Z,8.57
2022-08-14T23:55:11.468Z,9.90
2022-08-14T23:57:44.228Z,5.85
